Lockport, NY

12:35 AM EST on January 28, 2015 (GMT -0500)
Town of Lockport | Change Station
CLOSE
Current Station
Personal Weather Station
Location: Lockport, NY
Elevation: 587 ft
Nearby Weather Stations

Elev 587 ft 43.10 °N, 78.68 °W | Updated 12 seconds ago

Partly Cloudy
Partly Cloudy
-0.2 °F
Feels Like 0 °F
N
0.0
Wind Variable Wind from WNW
Gusts 0.0 mph

Today
High -- | Low -- °F
--% Chance of Precip.
Yesterday
High -- | Low -- °F
Precip. -- in
7:34 AM 5:21 PM
First Quarter, 61% visible
Pressure 30.19 in
Visibility 10.0 miles
Clouds Clear
Windchill 0 °F
Dew Point -33 °F
Humidity 19%
Rainfall 0.00 in
Snow Depth Not available.
UV 0 out of 12
Pollen .10 out of 12
Air Quality Not available.
Flu Activity Not available.
METAR KIAG 280453Z 29003KT 10SM CLR M14/M18 A3012 RMK AO2 SLP223 T11441178 410781161

More Conditions Fewer Conditions

Pressure 30.19 in
Visibility 10.0 miles
Clouds Clear
Windchill 0 °F
Dew Point -33 °F
Humidity 19%
Rainfall 0.00 in
Snow Depth Not available.
UV 0 out of 12
Pollen .10 out of 12
Air Quality Not available.
Flu Activity Not available.
METAR KIAG 280453Z 29003KT 10SM CLR M14/M18 A3012 RMK AO2 SLP223 T11441178 410781161

More Conditions Fewer Conditions

10-Day Weather Forecast

Almanac

Astronomy

Jan. 28, 2015 Rise Set
Actual Time
Civil Twilight
Nautical Twilight
Astronomical Twilight
Moon
Length of Visible Light
Length of Day
Tomorrow will be .
, % of the Moon is Illuminated

Today's Extremes

State Highs State Lows

Community

WunderPhotos

Upload Photos

1,791,103 photos uploaded!

WunderBlogs® & News

Nearby

Air Quality

  Air Quality AQ Index Pollutant
Not available.

Snow Depth

Station Depth Elevation

Earthquake Activity

City Distance Mag. Time & Date
Minimum magnitude displayed is 2.5.

Coastal Water Temperatures

Place Temperature

Nearby Weather Stations